Time;durP1;ratioP1;P1;durP2;ratioP2;P2;SDS_P1;SDS_P2;PMS_P1;PMS_P2;Temp;Humidity;BMP_temperature;BMP_pressure;BME280_temperature;BME280_humidity;BME280_pressure;Samples;Min_cycle;Max_cycle;Signal;HPM_P1;HPM_P2
2024/02/08 00:00:04;;;;;;;14.65;6.50;;;2.00;99.90;;;;;;4990511;28;20228;-88
2024/02/08 00:02:34;;;;;;;9.45;5.43;;;2.10;99.90;;;;;;4979496;28;20201;-87
2024/02/08 00:05:06;;;;;;;13.75;6.13;;;2.00;99.90;;;;;;4978960;28;20206;-87
2024/02/08 00:07:41;;;;;;;17.90;6.65;;;1.90;1.00;;;;;;4982855;28;20240;-87
2024/02/08 00:10:10;;;;;;;9.35;6.55;;;1.90;1.00;;;;;;4979308;28;20240;-88
2024/02/08 00:12:38;;;;;;;15.82;6.40;;;1.90;1.00;;;;;;4978119;28;20261;-88
2024/02/08 00:15:09;;;;;;;11.93;6.35;;;1.80;99.90;;;;;;4977950;28;20224;-88
2024/02/08 00:17:40;;;;;;;15.15;7.32;;;1.80;1.00;;;;;;4979378;28;20296;-88
2024/02/08 00:20:09;;;;;;;20.33;7.25;;;1.80;1.00;;;;;;4982989;28;20249;-88
2024/02/08 00:22:46;;;;;;;22.20;7.97;;;1.80;1.00;;;;;;4982534;28;20258;-88
2024/02/08 00:25:16;;;;;;;14.65;6.93;;;1.80;1.00;;;;;;4988307;28;20212;-89
2024/02/08 00:27:46;;;;;;;11.27;5.47;;;1.80;1.00;;;;;;4981601;28;20216;-88
2024/02/08 00:30:17;;;;;;;12.82;4.70;;;2.30;1.00;;;;;;4977720;28;20230;-88
2024/02/08 00:32:48;;;;;;;10.70;5.60;;;1.80;1.00;;;;;;4985346;28;20194;-88
2024/02/08 00:35:23;;;;;;;7.72;4.63;;;1.70;1.00;;;;;;4988634;28;20269;-89
2024/02/08 00:37:52;;;;;;;17.55;5.55;;;1.70;1.00;;;;;;4981820;28;20598;-88
2024/02/08 00:40:20;;;;;;;12.38;5.45;;;1.70;1.00;;;;;;4980656;28;20257;-88
2024/02/08 00:42:57;;;;;;;9.73;5.35;;;1.60;1.00;;;;;;4991906;28;20217;-88
2024/02/08 00:45:28;;;;;;;10.55;5.82;;;1.60;1.00;;;;;;5002334;28;20193;-88
2024/02/08 00:47:57;;;;;;;11.23;5.50;;;1.60;99.90;;;;;;5002526;28;20178;-87
2024/02/08 00:50:24;;;;;;;15.05;5.57;;;1.80;1.00;;;;;;5002342;28;20217;-87
2024/02/08 00:52:54;;;;;;;11.13;6.18;;;1.50;78.90;;;;;;5002051;28;20193;-87
2024/02/08 00:55:21;;;;;;;8.75;5.53;;;1.60;99.90;;;;;;5002085;28;20208;-88
2024/02/08 00:57:49;;;;;;;9.50;5.10;;;2.10;1.00;;;;;;5001404;28;20208;-88
2024/02/08 01:00:25;;;;;;;7.28;5.18;;;1.60;14.00;;;;;;5000995;28;20212;-88
2024/02/08 01:03:00;;;;;;;8.95;5.10;;;1.60;1.00;;;;;;4987129;28;20205;-88
2024/02/08 01:05:27;;;;;;;11.40;5.20;;;1.70;1.00;;;;;;5002015;28;20186;-87
2024/02/08 01:07:54;;;;;;;13.27;5.00;;;1.80;1.00;;;;;;5001758;28;20192;-87
2024/02/08 01:10:21;;;;;;;7.13;4.40;;;1.60;1.00;;;;;;5001505;28;20225;-88
2024/02/08 01:12:48;;;;;;;9.63;5.22;;;1.50;1.00;;;;;;4988793;28;20229;-87
2024/02/08 01:15:21;;;;;;;12.60;5.40;;;1.40;1.00;;;;;;4988329;28;20226;-88
2024/02/08 01:17:51;;;;;;;12.85;5.35;;;1.50;1.00;;;;;;4983119;28;20209;-88
2024/02/08 01:20:22;;;;;;;6.40;5.28;;;1.80;1.00;;;;;;4979893;28;20226;-88
2024/02/08 01:22:50;;;;;;;7.65;4.82;;;1.60;96.10;;;;;;4980857;28;20202;-88
2024/02/08 01:25:17;;;;;;;8.93;6.18;;;1.40;99.90;;;;;;4982038;28;20206;-88
2024/02/08 01:27:56;;;;;;;10.00;6.10;;;2.70;99.90;;;;;;4982086;28;20625;-88
2024/02/08 01:30:24;;;;;;;11.98;5.80;;;1.50;99.90;;;;;;4982109;28;20256;-88
2024/02/08 01:32:53;;;;;;;8.43;5.85;;;1.40;81.10;;;;;;4984992;28;20695;-88
2024/02/08 01:35:25;;;;;;;12.77;6.70;;;1.40;99.90;;;;;;5001445;28;20224;-87
2024/02/08 01:37:53;;;;;;;11.95;6.47;;;1.50;99.90;;;;;;4996060;28;20221;-88
2024/02/08 01:40:25;;;;;;;14.50;7.45;;;1.60;99.90;;;;;;4980935;28;20317;-88
2024/02/08 01:42:57;;;;;;;19.58;9.18;;;1.60;52.50;;;;;;4979908;28;20194;-88
2024/02/08 01:45:34;;;;;;;17.08;8.50;;;1.30;23.80;;;;;;4980595;28;20198;-88
2024/02/08 01:48:10;;;;;;;14.90;7.15;;;1.40;99.90;;;;;;4980029;28;20301;-88
2024/02/08 01:50:40;;;;;;;13.75;7.25;;;1.40;99.90;;;;;;4978950;28;20233;-88
2024/02/08 01:53:15;;;;;;;11.77;6.60;;;1.30;99.90;;;;;;4980344;28;20193;-89
2024/02/08 01:55:49;;;;;;;17.33;8.60;;;1.30;99.90;;;;;;4979279;28;20225;-88
2024/02/08 01:58:17;;;;;;;33.53;12.48;;;1.30;1.00;;;;;;4980025;28;20256;-88
2024/02/08 02:00:49;;;;;;;30.33;12.32;;;1.30;1.00;;;;;;4979908;28;20225;-88
2024/02/08 02:03:16;;;;;;;17.92;10.15;;;1.30;1.00;;;;;;4979188;28;20194;-88
2024/02/08 02:05:46;;;;;;;13.80;7.47;;;1.30;1.00;;;;;;4984887;28;20223;-88
2024/02/08 02:08:16;;;;;;;11.77;5.95;;;1.30;1.00;;;;;;4994468;28;20209;-90
2024/02/08 02:10:45;;;;;;;10.27;6.00;;;1.30;1.00;;;;;;5000506;23;20233;-89
2024/02/08 02:13:13;;;;;;;13.65;5.88;;;1.30;1.00;;;;;;4989083;28;20745;-89
2024/02/08 02:15:40;;;;;;;12.40;5.88;;;1.30;1.00;;;;;;4983469;28;20218;-89
2024/02/08 02:18:09;;;;;;;8.40;5.53;;;1.50;1.00;;;;;;4982466;28;20213;-89
2024/02/08 02:20:36;;;;;;;9.25;5.47;;;1.40;99.90;;;;;;4991158;28;20233;-89
2024/02/08 02:23:09;;;;;;;8.40;5.53;;;1.50;1.00;;;;;;5000427;28;20220;-89
2024/02/08 02:25:38;;;;;;;10.18;4.95;;;1.80;1.00;;;;;;5000522;28;20190;-88
2024/02/08 02:28:07;;;;;;;7.97;4.38;;;1.50;1.00;;;;;;5000424;28;20288;-88
2024/02/08 02:30:35;;;;;;;11.20;4.25;;;1.50;1.00;;;;;;5000449;28;20244;-89
2024/02/08 02:33:06;;;;;;;8.55;5.00;;;1.30;1.00;;;;;;4997580;28;20193;-89
2024/02/08 02:35:34;;;;;;;9.50;4.82;;;1.30;1.00;;;;;;4986287;28;20241;-90
2024/02/08 02:38:03;;;;;;;9.18;3.97;;;1.30;1.00;;;;;;4985960;28;20217;-90
2024/02/08 02:40:33;;;;;;;7.85;4.72;;;1.20;16.50;;;;;;4986494;28;20243;-89
2024/02/08 02:43:09;;;;;;;8.25;4.07;;;1.00;99.90;;;;;;4982986;28;20213;-89
2024/02/08 02:45:36;;;;;;;12.07;4.97;;;1.00;99.90;;;;;;4981660;28;20190;-89
2024/02/08 02:48:04;;;;;;;8.88;4.68;;;1.00;99.90;;;;;;4981913;28;20205;-89
2024/02/08 02:50:32;;;;;;;7.82;4.00;;;1.10;99.90;;;;;;4980087;28;20228;-89
2024/02/08 02:52:59;;;;;;;10.38;5.47;;;1.10;99.90;;;;;;4979461;28;20216;-89
2024/02/08 02:55:27;;;;;;;8.45;4.47;;;1.10;99.90;;;;;;4993494;28;20276;-89
2024/02/08 02:57:57;;;;;;;11.38;4.45;;;1.00;1.00;;;;;;4983385;28;20638;-89
2024/02/08 03:00:25;;;;;;;9.82;5.07;;;1.00;99.90;;;;;;4980144;28;20233;-89
2024/02/08 03:02:53;;;;;;;9.95;4.70;;;1.00;1.00;;;;;;4978233;28;20202;-89
2024/02/08 03:05:20;;;;;;;5.32;3.78;;;1.10;1.00;;;;;;4978212;28;20213;-89
2024/02/08 03:07:48;;;;;;;13.63;5.43;;;1.00;99.90;;;;;;4979911;28;20205;-90
2024/02/08 03:10:16;;;;;;;12.00;4.60;;;1.00;1.00;;;;;;4978369;28;20230;-90
2024/02/08 03:12:42;;;;;;;12.20;4.72;;;1.10;1.00;;;;;;4978864;28;20292;-89
2024/02/08 03:15:12;;;;;;;10.27;5.00;;;1.20;99.90;;;;;;4979956;28;20540;-90
2024/02/08 03:17:42;;;;;;;13.70;5.05;;;0.90;1.00;;;;;;4979533;28;20269;-89
2024/02/08 03:20:11;;;;;;;8.38;5.78;;;0.90;1.00;;;;;;4986911;28;20244;-89
2024/02/08 03:22:38;;;;;;;11.98;5.35;;;0.90;1.00;;;;;;4979007;28;20197;-90
2024/02/08 03:25:05;;;;;;;18.92;5.93;;;1.00;1.00;;;;;;4985286;28;20221;-89
2024/02/08 03:27:33;;;;;;;9.40;5.65;;;1.00;1.00;;;;;;4978959;28;20288;-89
2024/02/08 03:30:02;;;;;;;8.35;4.68;;;1.00;1.00;;;;;;4977883;28;20596;-89
2024/02/08 03:32:31;;;;;;;8.10;4.03;;;1.10;1.00;;;;;;4977605;28;20206;-90
2024/02/08 03:34:59;;;;;;;10.98;4.97;;;1.10;1.00;;;;;;4985565;28;20209;-89
2024/02/08 03:37:28;;;;;;;8.98;4.50;;;1.10;1.00;;;;;;4985139;28;20256;-90
2024/02/08 03:39:55;;;;;;;8.25;4.30;;;1.10;1.00;;;;;;4979621;28;20626;-89
2024/02/08 03:42:22;;;;;;;12.13;4.65;;;1.00;99.90;;;;;;4978577;28;20230;-89
2024/02/08 03:44:50;;;;;;;11.70;4.93;;;1.10;1.00;;;;;;4980954;28;20206;-89
2024/02/08 03:47:18;;;;;;;10.18;4.22;;;1.10;1.00;;;;;;4980154;28;20578;-88
2024/02/08 03:49:51;;;;;;;11.48;4.80;;;1.10;1.00;;;;;;4980230;28;20650;-89
2024/02/08 03:52:19;;;;;;;8.55;4.88;;;1.00;1.00;;;;;;4990610;28;20186;-89
2024/02/08 03:54:46;;;;;;;8.02;4.68;;;1.10;1.00;;;;;;4995022;28;20257;-88
2024/02/08 03:57:14;;;;;;;8.35;5.43;;;1.20;1.00;;;;;;4997444;28;20197;-90
2024/02/08 03:59:44;;;;;;;18.98;6.97;;;1.50;1.00;;;;;;4995820;28;20230;-90
2024/02/08 04:02:11;;;;;;;9.27;5.18;;;1.40;1.00;;;;;;4999476;28;20259;-88
2024/02/08 04:07:45;;;;;;;5.97;4.50;;;1.10;1.00;;;;;;5001790;28;20226;-89
2024/02/08 04:10:28;;;;;;;8.55;4.68;;;1.10;1.00;;;;;;5002768;28;20228;-88
2024/02/08 04:54:20;;;;;;;12.80;4.90;;;1.20;1.00;;;;;;4982670;28;20189;-89
2024/02/08 04:56:48;;;;;;;15.00;6.78;;;1.20;1.00;;;;;;4984760;28;20216;-89
2024/02/08 04:59:20;;;;;;;10.70;4.75;;;1.30;1.00;;;;;;4985657;28;20233;-89
2024/02/08 05:01:47;;;;;;;7.50;4.18;;;1.40;1.00;;;;;;4986379;28;20190;-90
2024/02/08 05:04:14;;;;;;;7.20;4.80;;;1.50;1.00;;;;;;4986354;28;20202;-90
2024/02/08 05:06:43;;;;;;;7.45;4.70;;;1.50;1.00;;;;;;4982746;28;20206;-90
2024/02/08 05:09:15;;;;;;;11.48;4.82;;;1.60;99.90;;;;;;4981927;28;20240;-90
2024/02/08 05:11:43;;;;;;;11.93;5.40;;;1.50;99.90;;;;;;4981573;28;20210;-90
2024/02/08 05:14:12;;;;;;;9.02;4.82;;;1.50;99.90;;;;;;4981696;28;20229;-90
2024/02/08 05:16:41;;;;;;;12.75;5.80;;;1.50;99.90;;;;;;4986994;28;20294;-90
2024/02/08 05:19:09;;;;;;;9.57;6.03;;;1.40;99.90;;;;;;4991711;28;20222;-90
2024/02/08 05:21:40;;;;;;;13.60;6.40;;;1.60;99.90;;;;;;4980720;28;20376;-89
2024/02/08 05:24:08;;;;;;;9.73;5.88;;;1.40;99.90;;;;;;4981238;28;20248;-89
2024/02/08 05:26:35;;;;;;;9.05;5.72;;;1.50;1.00;;;;;;4981605;28;20289;-89
2024/02/08 05:29:06;;;;;;;7.55;5.82;;;1.60;1.00;;;;;;4980412;28;20317;-89
2024/02/08 05:31:39;;;;;;;7.72;5.65;;;1.40;99.90;;;;;;4982030;28;20213;-89
2024/02/08 05:34:10;;;;;;;12.05;6.13;;;1.90;99.90;;;;;;4981418;28;20232;-89
2024/02/08 05:36:39;;;;;;;18.05;5.70;;;1.40;1.00;;;;;;4981319;28;20232;-89
2024/02/08 05:39:06;;;;;;;11.15;5.90;;;1.90;1.00;;;;;;4981895;28;20288;-89
2024/02/08 05:41:33;;;;;;;14.00;5.80;;;1.30;1.00;;;;;;4980662;28;20238;-89
2024/02/08 05:44:05;;;;;;;9.05;6.03;;;1.30;1.00;;;;;;4979771;28;20209;-89
2024/02/08 05:46:37;;;;;;;10.38;6.25;;;1.30;1.00;;;;;;4979654;28;20257;-88
2024/02/08 05:49:11;;;;;;;9.77;5.90;;;1.30;1.00;;;;;;4979899;28;20240;-88
2024/02/08 05:51:42;;;;;;;14.65;6.75;;;1.40;1.00;;;;;;4983597;28;20221;-90
2024/02/08 05:54:09;;;;;;;9.90;6.57;;;1.30;1.00;;;;;;4980892;28;20225;-89
2024/02/08 05:56:39;;;;;;;9.85;6.60;;;1.40;1.00;;;;;;4989332;28;20222;-89
2024/02/08 05:59:08;;;;;;;13.88;8.15;;;1.80;1.00;;;;;;4979549;28;20230;-89
2024/02/08 06:01:47;;;;;;;10.70;6.82;;;1.30;1.00;;;;;;4979940;28;20198;-89
2024/02/08 06:04:22;;;;;;;12.15;6.85;;;1.30;1.00;;;;;;4980705;28;20344;-89
2024/02/08 06:06:53;;;;;;;10.43;6.78;;;1.30;1.00;;;;;;4989107;28;20204;-89
2024/02/08 06:12:24;;;;;;;8.65;6.63;;;1.20;1.00;;;;;;5135653;27;20930;-89
2024/02/08 06:14:57;;;;;;;11.80;7.40;;;1.20;1.00;;;;;;5135036;28;20535;-88
2024/02/08 06:17:31;;;;;;;16.20;7.35;;;1.10;1.00;;;;;;5135652;28;20284;-88
2024/02/08 06:20:08;;;;;;;10.73;6.90;;;1.00;1.00;;;;;;5134840;28;20224;-89
2024/02/08 06:28:54;;;;;;;10.32;8.27;;;1.30;1.00;;;;;;5111063;27;20684;-88
2024/02/08 06:31:29;;;;;;;11.25;8.63;;;1.40;1.00;;;;;;5136209;27;20231;-88
2024/02/08 06:34:30;;;;;;;16.13;8.45;;;0.80;1.00;;;;;;5134666;27;20196;-88
2024/02/08 06:37:15;;;;;;;19.67;8.80;;;0.90;1.00;;;;;;5136291;28;20258;-89
2024/02/08 06:39:45;;;;;;;18.95;8.07;;;1.00;10.10;;;;;;5135341;27;20208;-87
2024/02/08 06:42:29;;;;;;;15.90;9.40;;;1.00;3.10;;;;;;5135668;27;20221;-87
2024/02/08 07:37:25;;;;;;;12.73;9.07;;;0.70;12.90;;;;;;5123333;28;20187;-87
2024/02/08 07:39:58;;;;;;;14.43;8.27;;;0.70;27.30;;;;;;5123073;28;20224;-88
2024/02/08 07:42:32;;;;;;;12.82;7.50;;;0.70;28.90;;;;;;5128514;28;20203;-88
2024/02/08 07:45:04;;;;;;;13.93;10.38;;;0.80;35.60;;;;;;5141317;28;20169;-89
2024/02/08 07:47:33;;;;;;;11.20;8.93;;;0.70;30.00;;;;;;5141423;27;20215;-89
2024/02/08 07:50:05;;;;;;;15.05;9.82;;;0.70;28.80;;;;;;5141602;28;20268;-89
2024/02/08 07:52:38;;;;;;;15.45;9.85;;;0.70;43.80;;;;;;5141683;27;20212;-90
2024/02/08 07:55:26;;;;;;;17.13;10.05;;;0.90;60.70;;;;;;5141428;28;20176;-89
2024/02/08 07:58:07;;;;;;;18.83;13.65;;;1.00;76.20;;;;;;5133588;28;20193;-89
2024/02/08 08:00:42;;;;;;;16.08;10.73;;;1.00;77.70;;;;;;5125297;28;20212;-88
2024/02/08 08:03:16;;;;;;;18.45;12.18;;;1.00;79.90;;;;;;5122093;28;20220;-88
2024/02/08 08:05:55;;;;;;;36.60;20.10;;;1.10;96.90;;;;;;5123481;28;20238;-89
2024/02/08 08:08:25;;;;;;;18.48;11.10;;;1.60;92.70;;;;;;5121621;28;20197;-87
2024/02/08 08:11:02;;;;;;;16.30;11.20;;;1.10;93.70;;;;;;5132974;28;20258;-87
2024/02/08 08:16:36;;;;;;;15.82;10.57;;;1.80;99.90;;;;;;5122993;28;20222;-87
2024/02/08 08:19:08;;;;;;;17.38;11.30;;;1.70;41.20;;;;;;5123560;28;20289;-87
2024/02/08 08:24:25;;;;;;;21.83;14.27;;;1.20;99.90;;;;;;5122598;28;20201;-89
2024/02/08 08:27:06;;;;;;;20.15;13.10;;;1.30;99.90;;;;;;5121851;28;20189;-87
2024/02/08 08:29:42;;;;;;;18.20;12.15;;;1.40;53.60;;;;;;5123525;28;20240;-87
2024/02/08 08:37:44;;;;;;;18.55;12.93;;;1.10;99.90;;;;;;5122027;28;20234;-87
2024/02/08 08:40:25;;;;;;;20.80;12.48;;;1.30;99.90;;;;;;5121475;28;20227;-87
2024/02/08 08:42:54;;;;;;;17.60;12.18;;;1.30;99.10;;;;;;5121888;28;20550;-88
2024/02/08 08:45:22;;;;;;;21.92;12.93;;;1.40;92.30;;;;;;5121490;28;20292;-87
2024/02/08 08:47:51;;;;;;;25.70;14.90;;;1.40;80.20;;;;;;5120708;28;20269;-87
2024/02/08 08:50:18;;;;;;;20.35;11.77;;;1.30;25.60;;;;;;5121687;28;20217;-87
2024/02/08 08:52:49;;;;;;;25.52;14.15;;;1.40;99.40;;;;;;5121904;28;20296;-87
2024/02/08 08:55:18;;;;;;;25.20;15.65;;;1.40;93.40;;;;;;5121820;28;20666;-87
2024/02/08 08:57:53;;;;;;;26.58;17.25;;;1.40;77.60;;;;;;5120622;27;20204;-87
2024/02/08 09:00:31;;;;;;;19.75;13.52;;;1.50;91.30;;;;;;5121801;28;20226;-88
2024/02/08 09:02:59;;;;;;;22.05;15.75;;;1.50;40.40;;;;;;5120992;28;20276;-88
2024/02/08 09:05:36;;;;;;;20.23;14.02;;;1.60;64.30;;;;;;5119197;28;20284;-88
2024/02/08 09:08:09;;;;;;;22.55;14.07;;;1.40;1.00;;;;;;5119863;27;20281;-88
2024/02/08 09:10:40;;;;;;;20.17;12.45;;;1.50;64.30;;;;;;5120941;28;20229;-88
2024/02/08 09:13:07;;;;;;;20.10;12.95;;;1.70;80.50;;;;;;5122161;28;20189;-89
2024/02/08 09:15:47;;;;;;;23.95;14.15;;;1.80;76.90;;;;;;5122712;27;20593;-89
2024/02/08 09:18:15;;;;;;;26.63;12.95;;;1.90;60.60;;;;;;5121091;28;20197;-89
2024/02/08 09:20:43;;;;;;;21.30;13.65;;;2.00;1.00;;;;;;5119927;28;20252;-88
2024/02/08 09:23:15;;;;;;;18.17;12.27;;;2.10;1.00;;;;;;5121211;28;20673;-89
2024/02/08 09:25:45;;;;;;;21.30;12.77;;;2.10;1.00;;;;;;5121592;28;20627;-89
2024/02/08 09:28:26;;;;;;;21.45;12.63;;;2.10;1.00;;;;;;5119990;28;20237;-89
2024/02/08 09:30:57;;;;;;;22.73;14.90;;;1.90;1.00;;;;;;5122301;28;20277;-89
2024/02/08 09:33:44;;;;;;;23.20;15.00;;;1.90;1.00;;;;;;5122484;28;20201;-88
2024/02/08 09:36:14;;;;;;;33.25;18.85;;;2.00;1.00;;;;;;5122461;28;20198;-88
2024/02/08 09:38:50;;;;;;;23.05;15.80;;;2.00;1.00;;;;;;5124206;28;20201;-88
2024/02/08 09:41:24;;;;;;;21.17;13.05;;;2.00;1.00;;;;;;5137043;28;20184;-88
2024/02/08 09:43:56;;;;;;;21.63;14.25;;;2.30;1.00;;;;;;5135549;28;20273;-88
2024/02/08 09:49:14;;;;;;;20.00;12.55;;;2.10;1.00;;;;;;5133417;28;20212;-90
2024/02/08 09:51:51;;;;;;;25.50;15.10;;;2.10;1.00;;;;;;5131262;28;20217;-89
2024/02/08 09:54:27;;;;;;;21.90;13.43;;;2.20;1.00;;;;;;5134205;28;20173;-89
2024/02/08 09:57:01;;;;;;;28.65;15.98;;;2.00;1.00;;;;;;5127929;28;20192;-89
2024/02/08 10:02:32;;;;;;;32.92;13.52;;;2.40;1.00;;;;;;5123780;28;20201;-89
2024/02/08 10:05:18;;;;;;;23.13;14.82;;;2.50;1.00;;;;;;5123611;28;20218;-89
2024/02/08 10:08:05;;;;;;;20.63;13.65;;;2.40;1.00;;;;;;5123150;28;20224;-89
2024/02/08 10:10:43;;;;;;;25.00;14.18;;;2.40;1.00;;;;;;5122548;28;20744;-89
2024/02/08 10:13:25;;;;;;;22.75;14.63;;;2.50;1.00;;;;;;5122417;28;20201;-89
2024/02/08 10:15:56;;;;;;;23.05;15.35;;;2.50;1.00;;;;;;5137634;28;20188;-88
2024/02/08 10:18:33;;;;;;;25.45;17.08;;;2.40;99.90;;;;;;5139038;28;20231;-89
2024/02/08 10:21:12;;;;;;;19.10;13.45;;;2.20;1.00;;;;;;5138722;28;20219;-89
2024/02/08 10:23:59;;;;;;;24.92;15.20;;;2.30;1.00;;;;;;5126898;28;20649;-90
2024/02/08 10:26:45;;;;;;;21.08;14.07;;;2.40;1.00;;;;;;5124539;28;20211;-90
2024/02/08 10:29:17;;;;;;;29.35;16.55;;;2.40;1.00;;;;;;5124299;28;20225;-90
2024/02/08 10:31:54;;;;;;;26.35;15.90;;;2.50;1.00;;;;;;5123862;28;20281;-89
2024/02/08 10:34:39;;;;;;;23.23;15.00;;;2.50;1.00;;;;;;5126626;28;20308;-89
2024/02/08 10:37:46;;;;;;;30.25;15.18;;;2.60;1.00;;;;;;5137999;28;20265;-89
2024/02/08 10:40:28;;;;;;;24.65;14.95;;;2.80;1.00;;;;;;5127575;28;20250;-89
2024/02/08 10:42:59;;;;;;;25.42;14.38;;;2.90;99.90;;;;;;5122395;28;20585;-89
2024/02/08 10:45:43;;;;;;;23.52;14.80;;;2.60;99.90;;;;;;5123490;28;20239;-90
2024/02/08 10:48:16;;;;;;;24.30;15.77;;;2.70;99.90;;;;;;5119928;28;20281;-90
2024/02/08 10:50:49;;;;;;;24.15;15.10;;;2.80;99.90;;;;;;5119346;28;20241;-89
2024/02/08 10:53:43;;;;;;;21.35;14.40;;;2.80;99.90;;;;;;5120250;28;20236;-89
2024/02/08 10:56:16;;;;;;;23.15;15.20;;;3.00;99.90;;;;;;5119216;28;20205;-88
2024/02/08 10:59:09;;;;;;;25.23;14.90;;;3.10;99.90;;;;;;5122284;28;20545;-89
2024/02/08 11:02:02;;;;;;;24.88;14.90;;;3.10;9.10;;;;;;5124009;28;20621;-90
2024/02/08 11:04:40;;;;;;;21.65;13.68;;;3.30;29.70;;;;;;5123752;28;20193;-88
2024/02/08 11:07:17;;;;;;;21.88;13.65;;;3.50;1.00;;;;;;5125715;28;20181;-89
2024/02/08 11:09:45;;;;;;;21.92;15.55;;;3.40;99.90;;;;;;5142065;28;20241;-89
2024/02/08 11:12:18;;;;;;;21.63;13.40;;;3.40;99.90;;;;;;5142036;28;20242;-90
2024/02/08 11:14:53;;;;;;;23.20;14.00;;;3.40;99.90;;;;;;5140941;28;20165;-89
2024/02/08 11:17:23;;;;;;;20.42;13.60;;;3.40;99.90;;;;;;5124798;28;20216;-89
2024/02/08 11:19:56;;;;;;;21.98;15.25;;;3.50;99.90;;;;;;5126141;27;20217;-89
2024/02/08 11:22:39;;;;;;;23.20;13.88;;;3.60;1.00;;;;;;5125037;28;20197;-89
2024/02/08 11:25:19;;;;;;;23.77;13.85;;;3.70;1.00;;;;;;5129940;28;20224;-89
2024/02/08 11:27:49;;;;;;;24.52;15.38;;;3.70;1.00;;;;;;5135089;28;20195;-89
2024/02/08 11:30:20;;;;;;;23.98;14.55;;;3.70;1.00;;;;;;5131100;28;20246;-88
2024/02/08 11:33:01;;;;;;;23.45;14.52;;;3.80;1.00;;;;;;5125036;28;20248;-89
2024/02/08 11:35:31;;;;;;;26.90;15.40;;;3.90;99.90;;;;;;5138295;28;20180;-89
2024/02/08 11:38:15;;;;;;;23.02;14.27;;;3.80;1.00;;;;;;5141856;28;20189;-89
2024/02/08 11:40:43;;;;;;;24.45;16.02;;;3.80;99.90;;;;;;5141470;28;20231;-89
2024/02/08 11:43:23;;;;;;;28.65;15.77;;;3.90;99.90;;;;;;5141493;28;20203;-89
2024/02/08 11:45:54;;;;;;;28.38;14.90;;;4.00;1.00;;;;;;5132976;28;20242;-89
2024/02/08 11:48:26;;;;;;;25.75;14.27;;;4.00;99.90;;;;;;5124698;28;20177;-88
2024/02/08 11:50:55;;;;;;;20.60;13.07;;;4.00;99.90;;;;;;5129848;28;20240;-89
2024/02/08 11:53:32;;;;;;;24.02;14.55;;;4.10;99.90;;;;;;5140092;28;20208;-89
2024/02/08 11:56:07;;;;;;;25.15;14.10;;;4.10;99.90;;;;;;5140681;28;20180;-90
2024/02/08 11:58:36;;;;;;;21.30;14.30;;;4.10;99.90;;;;;;5137468;28;20246;-89
2024/02/08 12:01:06;;;;;;;23.55;14.88;;;4.10;1.00;;;;;;5134056;28;20235;-89
2024/02/08 12:03:37;;;;;;;26.05;14.93;;;4.20;99.90;;;;;;5126014;28;20611;-90
2024/02/08 12:06:05;;;;;;;22.60;15.15;;;4.40;1.00;;;;;;5123236;28;20197;-89
2024/02/08 12:08:34;;;;;;;20.63;13.40;;;4.30;99.90;;;;;;5126361;28;20204;-89
2024/02/08 12:11:03;;;;;;;27.15;14.65;;;4.20;99.90;;;;;;5130354;28;20229;-89
2024/02/08 12:13:38;;;;;;;24.58;14.60;;;4.20;99.90;;;;;;5136883;28;20213;-89
2024/02/08 12:16:07;;;;;;;25.48;15.80;;;4.40;99.90;;;;;;5137728;28;20189;-89
2024/02/08 12:18:35;;;;;;;28.38;16.30;;;4.30;99.90;;;;;;5135422;28;20197;-89
2024/02/08 12:21:04;;;;;;;28.15;15.93;;;4.50;1.00;;;;;;5133870;27;20212;-89
2024/02/08 12:24:16;;;;;;;24.90;16.30;;;4.50;99.90;;;;;;5133149;22;20230;-88
2024/02/08 12:30:13;;;;;;;29.40;15.55;;;4.50;1.00;;;;;;4997823;28;20253;-89
2024/02/08 13:05:30;;;;;;;;;;;;;;;;;;;;;
2024/02/08 13:40:03;;;;;;;25.13;14.93;;;4.70;99.90;;;;;;5232968;22;25009831;31
2024/02/08 13:42:30;;;;;;;25.58;13.57;;;4.90;1.00;;;;;;6262359;22;20395;-88
2024/02/08 13:44:58;;;;;;;22.35;14.07;;;4.80;1.00;;;;;;6263343;22;20721;-88
2024/02/08 13:47:27;;;;;;;24.67;14.73;;;4.90;71.10;;;;;;6268686;22;20180;-88
2024/02/08 13:50:01;;;;;;;21.05;14.90;;;4.80;1.00;;;;;;6261526;22;20225;-90
2024/02/08 13:52:30;;;;;;;27.98;12.93;;;4.60;1.00;;;;;;6238708;23;20167;-87
2024/02/08 13:54:58;;;;;;;23.48;12.13;;;4.70;99.90;;;;;;6239847;22;20194;-88
2024/02/08 13:57:27;;;;;;;21.33;13.10;;;4.80;99.90;;;;;;6238423;23;20194;-88
2024/02/08 13:59:55;;;;;;;29.13;13.50;;;4.80;99.90;;;;;;6235113;23;20191;-87
2024/02/08 14:02:23;;;;;;;21.75;13.57;;;4.80;1.00;;;;;;6232981;22;20171;-88
2024/02/08 14:04:55;;;;;;;29.63;13.98;;;4.90;1.00;;;;;;6232328;23;20179;-88
2024/02/08 14:07:25;;;;;;;28.15;13.98;;;4.70;1.00;;;;;;6236820;22;20235;-88
2024/02/08 14:09:58;;;;;;;22.30;15.95;;;4.70;1.00;;;;;;6250092;22;20191;-87
2024/02/08 14:12:26;;;;;;;22.88;14.48;;;4.70;1.00;;;;;;6239165;22;20163;-88
2024/02/08 14:14:55;;;;;;;21.30;13.77;;;4.90;1.00;;;;;;6231006;23;20170;-88
2024/02/08 14:17:22;;;;;;;21.23;14.20;;;4.70;1.00;;;;;;6230520;22;20240;-87
2024/02/08 14:19:50;;;;;;;29.85;14.35;;;4.80;1.00;;;;;;6228879;23;20241;-87
2024/02/08 14:22:17;;;;;;;32.42;16.15;;;4.80;1.00;;;;;;6229441;23;20261;-87
2024/02/08 14:24:51;;;;;;;30.70;16.00;;;4.80;1.00;;;;;;6230519;23;20179;-87
2024/02/08 14:27:18;;;;;;;29.98;15.00;;;4.80;1.00;;;;;;6229983;22;20163;-88
2024/02/08 14:29:48;;;;;;;33.20;16.90;;;4.90;1.00;;;;;;6228855;23;20210;-87
2024/02/08 14:32:14;;;;;;;34.50;17.17;;;4.80;1.00;;;;;;6231544;23;20253;-88
2024/02/08 14:34:43;;;;;;;35.40;18.37;;;4.80;1.00;;;;;;6230422;23;20174;-88
2024/02/08 14:37:10;;;;;;;32.50;17.98;;;4.80;1.00;;;;;;6227263;23;20446;-86
2024/02/08 14:39:38;;;;;;;34.83;19.83;;;4.80;1.00;;;;;;6241100;23;20179;-88
2024/02/08 14:42:17;;;;;;;29.27;17.73;;;4.80;1.00;;;;;;6234020;23;20179;-88
2024/02/08 14:44:51;;;;;;;30.98;18.65;;;4.70;1.00;;;;;;6229223;23;20163;-88
2024/02/08 14:47:22;;;;;;;27.17;16.35;;;4.70;1.00;;;;;;6229217;23;20160;-87
2024/02/08 14:49:58;;;;;;;34.20;17.42;;;4.70;1.00;;;;;;6227803;23;20152;-87
2024/02/08 14:52:28;;;;;;;29.73;15.85;;;4.70;1.00;;;;;;6227573;23;20497;-87
2024/02/08 14:54:58;;;;;;;23.27;15.40;;;4.60;1.00;;;;;;6240429;23;20175;-87
2024/02/08 14:57:38;;;;;;;31.52;17.55;;;4.60;1.00;;;;;;6240979;23;20210;-87
2024/02/08 15:02:56;;;;;;;35.00;16.90;;;4.60;1.00;;;;;;6228907;23;20670;-88
2024/02/08 15:05:40;;;;;;;26.13;16.95;;;4.60;1.00;;;;;;6227668;23;20173;-88
2024/02/08 15:08:29;;;;;;;27.63;16.42;;;4.70;1.00;;;;;;6224936;23;20187;-88
2024/02/08 15:11:02;;;;;;;33.38;16.65;;;4.70;2.70;;;;;;6225600;23;20191;-87
2024/02/08 15:13:45;;;;;;;33.63;16.77;;;4.80;1.00;;;;;;6234159;23;20166;-88
2024/02/08 15:16:21;;;;;;;28.08;16.23;;;4.70;1.00;;;;;;6238983;23;20302;-88
2024/02/08 15:18:48;;;;;;;24.75;15.65;;;4.70;1.00;;;;;;6237928;23;20170;-88
2024/02/08 15:21:16;;;;;;;31.48;16.83;;;4.70;61.90;;;;;;6239104;23;20179;-86
2024/02/08 15:24:18;;;;;;;24.17;14.73;;;4.70;19.80;;;;;;6237808;23;20175;-87
2024/02/08 15:26:47;;;;;;;27.30;15.68;;;4.70;1.00;;;;;;6237387;23;20179;-87
2024/02/08 15:29:30;;;;;;;27.00;17.00;;;4.60;1.00;;;;;;6235054;23;20159;-88
2024/02/08 15:32:17;;;;;;;34.22;17.92;;;4.70;99.80;;;;;;6233102;23;20167;-87
2024/02/08 15:34:58;;;;;;;35.50;17.05;;;4.70;81.80;;;;;;6238145;23;20151;-88
2024/02/08 15:37:41;;;;;;;31.88;16.55;;;4.70;71.40;;;;;;6234263;22;20199;-87
2024/02/08 15:40:14;;;;;;;23.20;14.85;;;4.60;99.90;;;;;;6241328;23;20206;-88
2024/02/08 15:42:48;;;;;;;27.40;15.73;;;4.60;99.90;;;;;;6271587;22;20231;-87
2024/02/08 15:45:14;;;;;;;27.02;16.27;;;4.50;99.90;;;;;;6272075;23;20201;-87
2024/02/08 15:48:03;;;;;;;42.13;26.10;;;4.50;99.90;;;;;;6272595;22;20178;-87
2024/02/08 15:50:43;;;;;;;29.70;17.52;;;4.60;99.90;;;;;;6273468;22;20421;-87
2024/02/08 15:53:23;;;;;;;28.02;16.17;;;4.60;99.90;;;;;;6270743;22;20155;-87
2024/02/08 15:56:01;;;;;;;29.02;16.88;;;4.50;99.90;;;;;;6259719;23;20162;-87
2024/02/08 15:58:29;;;;;;;25.50;16.42;;;4.60;1.00;;;;;;6259422;23;20162;-87
2024/02/08 16:01:17;;;;;;;34.35;15.65;;;4.50;1.00;;;;;;6260178;22;20198;-88
2024/02/08 16:04:00;;;;;;;30.30;13.90;;;4.40;1.00;;;;;;6270725;23;20154;-88
2024/02/08 16:06:42;;;;;;;26.52;13.60;;;4.30;15.90;;;;;;6259995;22;20181;-88
2024/02/08 16:09:24;;;;;;;24.45;15.27;;;4.30;92.40;;;;;;6258106;23;20159;-87
2024/02/08 16:11:58;;;;;;;22.23;15.77;;;4.40;99.90;;;;;;6266393;22;20209;-88
2024/02/08 16:14:26;;;;;;;25.15;14.55;;;4.30;99.90;;;;;;6265065;23;20174;-88
2024/02/08 16:17:07;;;;;;;24.63;15.25;;;4.30;99.90;;;;;;6259586;23;20218;-88
2024/02/08 16:19:51;;;;;;;24.55;13.93;;;4.30;99.90;;;;;;6260479;22;20163;-86
2024/02/08 16:22:24;;;;;;;20.33;13.40;;;4.30;1.00;;;;;;6257734;23;20241;-87
2024/02/08 16:24:52;;;;;;;26.52;15.90;;;4.30;1.00;;;;;;6260337;23;20162;-87
2024/02/08 16:27:20;;;;;;;26.15;14.85;;;4.30;21.00;;;;;;6257235;23;20559;-88
2024/02/08 16:29:58;;;;;;;20.73;14.25;;;4.20;99.90;;;;;;6258186;22;20175;-88
2024/02/08 16:32:33;;;;;;;21.65;12.95;;;4.20;99.90;;;;;;6256510;23;20218;-88